Time;durP1;ratioP1;P1;durP2;ratioP2;P2;SDS_P1;SDS_P2;PMS_P1;PMS_P2;Temp;Humidity;BMP_temperature;BMP_pressure;BME280_temperature;BME280_humidity;BME280_pressure;Samples;Min_cycle;Max_cycle;Signal;HPM_P1;HPM_P2
2022/06/04 00:00:17;;;;;;;26.50;18.03;;;17.10;97.20;;;;;;4979192;28;20932;-52
2022/06/04 00:02:45;;;;;;;25.33;14.20;;;17.20;97.00;;;;;;4992031;28;20906;-52
2022/06/04 00:05:15;;;;;;;25.40;16.47;;;17.20;96.90;;;;;;4991237;28;20896;-53
2022/06/04 00:07:42;;;;;;;29.80;14.93;;;17.20;97.10;;;;;;4990103;28;20836;-52
2022/06/04 00:15:38;;;;;;;23.37;16.03;;;;;;;;;;4990742;28;20508;-51
2022/06/04 00:18:04;;;;;;;20.87;13.10;;;17.30;96.40;;;;;;4991010;28;21003;-51
2022/06/04 00:20:31;;;;;;;24.80;13.70;;;17.20;96.80;;;;;;4987901;28;20708;-51
2022/06/04 00:22:59;;;;;;;31.00;17.27;;;;;;;;;;4986440;28;21273;-51
2022/06/04 00:25:25;;;;;;;33.00;16.37;;;17.10;97.40;;;;;;4989069;28;20470;-51
2022/06/04 00:27:56;;;;;;;22.17;15.50;;;17.10;96.90;;;;;;4991911;28;20488;-52
2022/06/04 00:30:23;;;;;;;26.80;16.67;;;17.00;96.80;;;;;;4978784;28;20489;-52
2022/06/04 00:32:50;;;;;;;35.63;16.10;;;16.90;96.70;;;;;;4989383;28;20923;-51
2022/06/04 00:35:17;;;;;;;46.93;19.60;;;16.80;97.00;;;;;;4986471;28;20485;-52
2022/06/04 00:37:44;;;;;;;30.63;14.20;;;16.60;97.40;;;;;;4989354;28;20607;-51
2022/06/04 00:40:13;;;;;;;33.67;16.27;;;;;;;;;;4980371;28;20567;-51
2022/06/04 00:42:40;;;;;;;23.17;14.27;;;16.40;97.80;;;;;;5009044;28;21062;-52
2022/06/04 00:45:43;;;;;;;22.77;13.60;;;16.40;98.10;;;;;;4986988;28;21184;-52
2022/06/04 00:48:11;;;;;;;23.17;14.80;;;16.40;98.60;;;;;;4988963;28;20489;-52
2022/06/04 00:50:40;;;;;;;19.60;13.77;;;16.40;99.40;;;;;;4989454;28;20535;-52
2022/06/04 00:53:09;;;;;;;33.83;15.10;;;;;;;;;;4989546;28;20489;-51
2022/06/04 00:55:45;;;;;;;37.00;13.70;;;16.30;99.90;;;;;;4991082;28;20948;-51
2022/06/04 00:58:35;;;;;;;33.43;18.10;;;16.30;99.50;;;;;;4994409;28;20477;-51
2022/06/04 01:01:11;;;;;;;32.53;15.43;;;16.50;99.10;;;;;;4988819;28;20469;-51
2022/06/04 01:03:51;;;;;;;23.80;14.87;;;16.60;99.00;;;;;;4986315;28;20530;-51
2022/06/04 01:06:36;;;;;;;38.67;15.17;;;16.70;98.90;;;;;;5002193;28;20496;-51
2022/06/04 01:09:37;;;;;;;27.97;16.17;;;16.70;98.60;;;;;;4979140;28;20487;-51
2022/06/04 01:12:18;;;;;;;27.10;15.93;;;16.80;98.40;;;;;;4980009;28;20481;-52
2022/06/04 01:15:10;;;;;;;31.13;16.63;;;16.90;98.40;;;;;;4985118;28;20512;-51
2022/06/04 01:17:48;;;;;;;20.80;14.67;;;16.90;98.20;;;;;;4989636;28;20485;-51
2022/06/04 01:20:29;;;;;;;26.63;19.40;;;16.90;98.00;;;;;;4987924;28;20486;-51
2022/06/04 01:23:24;;;;;;;48.70;17.27;;;17.00;97.90;;;;;;4977920;28;20990;-51
2022/06/04 01:26:15;;;;;;;29.83;17.10;;;17.00;97.90;;;;;;4988220;28;20595;-51
2022/06/04 01:28:45;;;;;;;27.33;16.17;;;;;;;;;;4989036;28;20474;-51
2022/06/04 01:31:18;;;;;;;21.80;17.07;;;17.00;97.80;;;;;;4989146;28;20623;-52
2022/06/04 01:33:50;;;;;;;26.60;15.77;;;17.10;97.90;;;;;;4989638;28;20937;-51
2022/06/04 01:36:22;;;;;;;34.53;20.20;;;17.10;97.90;;;;;;4988144;28;20481;-52
2022/06/04 01:38:53;;;;;;;38.97;17.00;;;17.10;98.10;;;;;;4987822;28;20477;-52
2022/06/04 01:41:26;;;;;;;23.00;17.33;;;17.10;98.00;;;;;;4987985;28;20481;-52
2022/06/04 01:43:56;;;;;;;27.17;15.80;;;17.00;97.90;;;;;;4986623;28;20478;-52
2022/06/04 01:46:26;;;;;;;39.33;18.73;;;16.90;98.10;;;;;;5000264;28;21415;-52
2022/06/04 01:48:57;;;;;;;23.20;15.10;;;16.90;98.30;;;;;;5016962;28;20922;-52
2022/06/04 01:51:26;;;;;;;31.80;14.07;;;16.90;98.30;;;;;;5008253;28;20477;-51
2022/06/04 01:53:56;;;;;;;29.90;14.47;;;16.80;98.30;;;;;;5009443;28;20481;-51
2022/06/04 01:56:29;;;;;;;31.70;16.90;;;16.50;99.00;;;;;;5009258;28;20481;-51
2022/06/04 01:59:00;;;;;;;23.57;15.63;;;;;;;;;;4991220;28;20887;-52
2022/06/04 02:01:30;;;;;;;33.00;14.40;;;16.40;99.10;;;;;;4999541;28;20480;-52
2022/06/04 02:04:01;;;;;;;30.53;15.27;;;16.50;99.10;;;;;;4976569;28;20478;-52
2022/06/04 02:06:33;;;;;;;21.17;14.70;;;16.50;99.00;;;;;;4992972;28;20702;-52
2022/06/04 02:09:03;;;;;;;19.23;14.80;;;16.50;99.00;;;;;;4988944;28;21083;-52
2022/06/04 02:11:32;;;;;;;20.80;14.70;;;;;;;;;;4978643;28;20563;-52
2022/06/04 02:14:06;;;;;;;23.63;15.03;;;16.60;98.80;;;;;;5005630;28;20924;-52
2022/06/04 02:16:36;;;;;;;26.80;14.33;;;16.70;98.60;;;;;;4987723;28;20489;-52
2022/06/04 02:19:03;;;;;;;27.80;15.77;;;16.70;98.50;;;;;;4988228;28;20474;-52
2022/06/04 02:21:31;;;;;;;19.83;14.83;;;16.70;98.40;;;;;;4982044;28;20571;-52
2022/06/04 02:23:59;;;;;;;27.93;15.90;;;16.70;98.20;;;;;;4976929;28;20477;-52
2022/06/04 02:26:27;;;;;;;25.20;15.20;;;16.70;98.20;;;;;;4987998;28;20482;-52
2022/06/04 02:28:58;;;;;;;30.70;15.10;;;16.70;98.40;;;;;;4987762;28;20497;-52
2022/06/04 02:31:30;;;;;;;31.47;16.93;;;16.50;98.80;;;;;;4987113;28;20485;-52
2022/06/04 02:34:05;;;;;;;45.27;16.13;;;16.40;99.00;;;;;;4989631;28;21170;-52
2022/06/04 02:36:38;;;;;;;37.40;14.70;;;16.20;99.20;;;;;;4987907;28;20478;-52
2022/06/04 02:39:13;;;;;;;22.20;16.03;;;16.10;99.60;;;;;;4979733;28;20930;-53
2022/06/04 02:41:44;;;;;;;22.47;13.37;;;16.10;99.50;;;;;;4999282;28;20867;-52
2022/06/04 02:44:21;;;;;;;24.73;16.10;;;16.20;99.50;;;;;;4993391;28;21318;-52
2022/06/04 02:46:55;;;;;;;33.63;15.17;;;16.10;99.50;;;;;;4995143;28;20926;-52
2022/06/04 02:49:24;;;;;;;29.00;17.70;;;16.00;99.70;;;;;;4992843;28;20491;-52
2022/06/04 02:51:54;;;;;;;31.63;13.87;;;15.90;99.90;;;;;;5001121;28;20476;-52
2022/06/04 02:54:26;;;;;;;49.97;16.40;;;15.80;99.90;;;;;;4994340;28;20481;-52
2022/06/04 02:56:55;;;;;;;40.00;14.70;;;15.70;99.90;;;;;;5000087;28;20494;-52
2022/06/04 02:59:25;;;;;;;28.90;15.23;;;15.70;99.90;;;;;;5000689;28;20473;-52
2022/06/04 03:01:54;;;;;;;30.43;13.67;;;15.70;99.90;;;;;;5001878;28;21022;-52
2022/06/04 03:04:21;;;;;;;21.90;15.70;;;15.70;99.90;;;;;;5022807;28;20500;-52
2022/06/04 03:06:48;;;;;;;23.70;13.40;;;15.70;99.90;;;;;;5015871;28;21034;-52
2022/06/04 03:09:18;;;;;;;23.60;15.57;;;15.60;99.90;;;;;;5016771;28;20477;-52
2022/06/04 03:11:47;;;;;;;18.80;13.60;;;15.60;99.90;;;;;;5013205;28;20510;-52
2022/06/04 03:14:16;;;;;;;43.23;15.87;;;15.80;99.90;;;;;;5018754;28;20483;-52
2022/06/04 03:16:45;;;;;;;16.87;13.13;;;;;;;;;;5009191;28;20484;-52
2022/06/04 03:19:12;;;;;;;30.23;15.67;;;16.00;99.90;;;;;;5011505;28;20488;-53
2022/06/04 03:21:41;;;;;;;35.67;13.50;;;16.00;99.90;;;;;;5024352;28;20484;-52
2022/06/04 03:24:10;;;;;;;21.90;13.27;;;16.10;99.90;;;;;;5021981;28;20475;-52
2022/06/04 03:26:37;;;;;;;17.73;12.83;;;16.10;99.90;;;;;;5016330;28;20476;-52
2022/06/04 03:29:05;;;;;;;29.67;13.70;;;16.30;99.90;;;;;;5016249;28;20487;-52
2022/06/04 03:31:31;;;;;;;16.10;11.80;;;16.20;99.90;;;;;;5020061;28;20488;-52
2022/06/04 03:34:00;;;;;;;23.83;14.13;;;16.20;99.80;;;;;;5020148;28;20502;-51
2022/06/04 03:36:27;;;;;;;33.50;14.03;;;16.30;99.70;;;;;;5019438;28;20491;-53
2022/06/04 03:38:56;;;;;;;19.23;14.43;;;16.20;99.70;;;;;;5018022;28;21149;-52
2022/06/04 03:41:23;;;;;;;32.67;16.27;;;16.30;99.50;;;;;;5018630;28;21039;-51
2022/06/04 03:43:52;;;;;;;27.13;13.63;;;16.30;99.40;;;;;;5018198;28;20481;-51
2022/06/04 03:46:19;;;;;;;30.00;16.00;;;16.40;99.30;;;;;;5018998;28;20479;-51
2022/06/04 03:48:46;;;;;;;18.97;14.80;;;16.40;99.30;;;;;;5019678;28;21058;-51
2022/06/04 03:51:14;;;;;;;20.03;14.73;;;16.50;99.10;;;;;;5007443;28;20499;-52
2022/06/04 03:53:40;;;;;;;22.90;13.40;;;16.50;99.10;;;;;;5018498;28;20476;-52
2022/06/04 03:56:07;;;;;;;20.20;15.27;;;;;;;;;;5014451;28;20481;-52
2022/06/04 03:58:34;;;;;;;26.93;15.67;;;16.60;99.30;;;;;;5018667;28;20480;-51
2022/06/04 04:01:01;;;;;;;24.60;14.50;;;16.50;99.70;;;;;;5018035;28;20503;-52
2022/06/04 04:03:28;;;;;;;19.80;14.67;;;;;;;;;;5018661;28;20492;-52
2022/06/04 04:05:56;;;;;;;17.90;13.70;;;16.40;99.90;;;;;;5013839;28;20491;-52
2022/06/04 04:08:27;;;;;;;19.20;14.73;;;16.30;99.90;;;;;;5018527;28;20473;-51
2022/06/04 04:10:54;;;;;;;20.40;16.00;;;16.20;99.90;;;;;;5018320;28;20489;-52
2022/06/04 04:13:21;;;;;;;24.93;18.03;;;;;;;;;;5017844;28;20472;-51
2022/06/04 04:15:48;;;;;;;17.97;13.40;;;16.00;99.90;;;;;;5018382;28;21001;-53
2022/06/04 04:18:15;;;;;;;22.77;15.60;;;16.00;99.90;;;;;;5019162;28;21204;-52
2022/06/04 04:20:45;;;;;;;27.97;14.67;;;;;;;;;;5016654;28;21166;-51
2022/06/04 04:23:11;;;;;;;22.10;16.13;;;15.90;99.90;;;;;;5018439;28;20487;-52
2022/06/04 04:25:39;;;;;;;30.50;14.40;;;15.90;99.90;;;;;;5019060;28;20487;-52
2022/06/04 04:28:07;;;;;;;17.17;12.43;;;16.00;99.90;;;;;;5019684;28;20496;-52
2022/06/04 04:30:36;;;;;;;16.50;13.30;;;16.10;99.90;;;;;;5020165;28;20481;-51
2022/06/04 04:33:05;;;;;;;26.83;14.40;;;16.30;99.90;;;;;;5019361;28;20487;-52
2022/06/04 04:35:33;;;;;;;15.13;13.53;;;16.40;99.90;;;;;;5018908;28;20492;-52
2022/06/04 04:38:00;;;;;;;19.60;13.10;;;;;;;;;;5019044;28;20838;-52
2022/06/04 04:40:29;;;;;;;27.90;13.67;;;16.70;99.90;;;;;;5023873;28;20754;-52
2022/06/04 04:42:58;;;;;;;23.70;15.67;;;16.70;99.90;;;;;;5019748;28;20480;-52
2022/06/04 04:45:26;;;;;;;19.17;14.37;;;16.70;99.90;;;;;;5021082;28;20481;-52
2022/06/04 04:47:53;;;;;;;27.93;15.00;;;16.60;99.90;;;;;;5021857;28;20481;-52
2022/06/04 04:50:23;;;;;;;24.13;17.13;;;16.60;99.90;;;;;;5021276;28;20476;-53
2022/06/04 04:52:52;;;;;;;17.57;14.10;;;16.70;99.90;;;;;;5022769;28;20480;-52
2022/06/04 04:55:19;;;;;;;19.30;15.80;;;16.80;99.90;;;;;;5019805;28;20980;-51
2022/06/04 04:57:46;;;;;;;18.47;15.03;;;16.90;99.90;;;;;;5022624;28;20477;-52
2022/06/04 05:00:16;;;;;;;20.43;17.00;;;17.10;99.90;;;;;;5026284;28;21070;-52
2022/06/04 05:02:44;;;;;;;17.97;14.67;;;17.20;99.90;;;;;;5022400;28;20518;-52
2022/06/04 05:05:12;;;;;;;19.60;15.07;;;17.30;99.90;;;;;;5022054;28;20464;-52
2022/06/04 05:07:39;;;;;;;23.40;15.20;;;;;;;;;;5023412;28;21082;-51
2022/06/04 05:10:08;;;;;;;21.10;14.97;;;17.40;99.90;;;;;;5024972;28;20499;-51
2022/06/04 05:12:35;;;;;;;30.60;15.43;;;17.40;99.90;;;;;;5020352;28;21056;-52
2022/06/04 05:15:01;;;;;;;43.70;16.13;;;17.50;99.90;;;;;;5020633;28;20496;-52
2022/06/04 05:17:29;;;;;;;18.30;14.23;;;17.50;99.90;;;;;;5023504;28;20486;-52
2022/06/04 05:19:56;;;;;;;25.27;16.20;;;17.50;99.90;;;;;;5026816;28;20522;-52
2022/06/04 05:22:23;;;;;;;46.87;18.77;;;17.60;99.90;;;;;;5023509;28;20547;-52
2022/06/04 05:24:50;;;;;;;19.27;15.50;;;17.60;99.90;;;;;;5019803;28;20476;-51
2022/06/04 05:27:16;;;;;;;27.77;18.20;;;17.70;99.90;;;;;;5010142;28;20481;-51
2022/06/04 05:29:43;;;;;;;32.87;16.10;;;17.60;99.90;;;;;;5016881;28;20485;-51
2022/06/04 05:32:10;;;;;;;37.93;18.63;;;17.50;99.90;;;;;;5002972;28;20485;-51
2022/06/04 05:34:39;;;;;;;18.70;14.67;;;17.40;99.90;;;;;;4999586;28;20477;-51
2022/06/04 05:37:07;;;;;;;33.90;15.80;;;17.40;99.90;;;;;;4999347;28;20482;-50
2022/06/04 05:39:34;;;;;;;18.17;14.83;;;17.50;99.90;;;;;;5000224;28;20486;-51
2022/06/04 05:42:01;;;;;;;17.83;14.67;;;17.50;99.90;;;;;;5001182;28;20485;-51
2022/06/04 05:44:28;;;;;;;30.10;16.23;;;17.70;99.90;;;;;;4993560;28;20480;-51
2022/06/04 05:46:55;;;;;;;18.90;14.90;;;17.80;99.90;;;;;;5002720;28;20956;-51
2022/06/04 05:49:22;;;;;;;19.87;16.33;;;17.90;99.90;;;;;;5000364;28;20493;-51
2022/06/04 05:51:51;;;;;;;25.90;14.90;;;17.90;99.90;;;;;;4999763;28;20822;-51
2022/06/04 05:54:19;;;;;;;23.00;17.27;;;18.00;99.90;;;;;;4993535;28;21011;-51
2022/06/04 05:56:48;;;;;;;18.13;14.80;;;;;;;;;;5000820;28;20481;-50
2022/06/04 05:59:16;;;;;;;24.03;16.40;;;;;;;;;;5000648;28;20465;-51
2022/06/04 06:01:45;;;;;;;22.77;14.33;;;18.20;99.90;;;;;;5001758;28;20516;-50
2022/06/04 06:04:13;;;;;;;17.70;14.30;;;18.30;99.90;;;;;;5000050;28;20863;-51
2022/06/04 06:06:41;;;;;;;14.43;12.90;;;18.30;99.90;;;;;;5001333;28;20482;-51
2022/06/04 06:09:12;;;;;;;17.60;14.93;;;18.40;99.90;;;;;;4999683;28;20486;-51
2022/06/04 06:11:40;;;;;;;20.50;13.70;;;18.50;99.90;;;;;;5000931;28;20485;-51
2022/06/04 06:14:08;;;;;;;27.10;14.10;;;18.50;99.90;;;;;;4997901;28;20578;-51
2022/06/04 06:16:36;;;;;;;23.10;13.43;;;18.60;99.90;;;;;;5001165;28;20573;-51
2022/06/04 06:19:03;;;;;;;18.17;14.67;;;18.70;99.90;;;;;;4998110;28;21029;-51
2022/06/04 06:21:32;;;;;;;18.90;14.10;;;18.70;99.90;;;;;;5001074;28;20497;-52
2022/06/04 06:24:00;;;;;;;17.87;14.00;;;18.80;99.90;;;;;;5006425;28;20481;-52
2022/06/04 06:26:31;;;;;;;19.67;14.50;;;18.90;99.90;;;;;;4998661;28;20477;-52
2022/06/04 06:29:00;;;;;;;16.97;14.67;;;18.90;99.90;;;;;;4999214;28;20992;-52
2022/06/04 06:31:28;;;;;;;13.40;11.90;;;18.90;99.90;;;;;;4995042;28;20531;-53
2022/06/04 06:33:56;;;;;;;24.70;14.50;;;18.90;99.90;;;;;;4999220;28;20474;-59
2022/06/04 06:36:23;;;;;;;18.33;15.00;;;18.90;99.90;;;;;;5001333;28;20485;-52
2022/06/04 06:38:51;;;;;;;18.00;12.33;;;18.90;99.90;;;;;;4992711;28;20522;-52
2022/06/04 06:41:20;;;;;;;24.40;15.67;;;19.00;99.90;;;;;;4996225;28;20476;-53
2022/06/04 06:43:50;;;;;;;14.87;12.20;;;19.00;99.90;;;;;;4999388;28;21016;-52
2022/06/04 06:46:19;;;;;;;22.13;15.50;;;19.20;99.90;;;;;;4997708;28;20484;-52
2022/06/04 06:48:48;;;;;;;19.30;13.37;;;19.20;99.90;;;;;;4992263;28;20489;-53
2022/06/04 06:51:18;;;;;;;19.57;15.20;;;19.40;99.90;;;;;;5011081;28;20482;-52
2022/06/04 06:53:45;;;;;;;24.63;15.13;;;19.40;99.90;;;;;;5000200;28;21324;-51
2022/06/04 06:56:13;;;;;;;16.53;14.27;;;19.50;99.90;;;;;;5000433;28;20986;-52
2022/06/04 06:58:41;;;;;;;17.50;15.10;;;19.60;99.90;;;;;;5000764;28;21283;-52
2022/06/04 07:01:11;;;;;;;20.00;13.37;;;19.70;99.90;;;;;;4994771;28;20998;-52
2022/06/04 07:03:39;;;;;;;17.97;12.47;;;19.80;99.90;;;;;;5001684;28;20528;-52
2022/06/04 07:06:07;;;;;;;13.60;12.30;;;19.90;99.90;;;;;;5000125;28;20505;-53
2022/06/04 07:08:34;;;;;;;16.27;12.77;;;19.90;99.90;;;;;;4989468;28;20546;-52
2022/06/04 07:11:01;;;;;;;18.10;12.93;;;19.90;99.90;;;;;;5029710;28;20487;-52
2022/06/04 07:13:28;;;;;;;18.73;12.37;;;20.00;99.90;;;;;;4990402;28;20854;-52
2022/06/04 07:15:54;;;;;;;20.03;13.27;;;20.00;99.90;;;;;;4997186;28;20477;-52
2022/06/04 07:18:23;;;;;;;16.67;13.60;;;20.10;99.90;;;;;;4993331;28;20854;-52
2022/06/04 07:20:50;;;;;;;13.67;11.80;;;20.10;99.90;;;;;;4998825;28;20484;-53
2022/06/04 07:23:18;;;;;;;19.33;13.50;;;20.10;99.90;;;;;;5000051;28;21072;-52
2022/06/04 07:25:46;;;;;;;13.97;12.47;;;20.10;99.90;;;;;;4996373;28;20485;-53
2022/06/04 07:28:14;;;;;;;18.77;13.43;;;;;;;;;;4995877;28;20495;-53
2022/06/04 07:30:41;;;;;;;17.07;13.90;;;20.30;99.90;;;;;;4983806;28;20480;-53
2022/06/04 07:33:08;;;;;;;23.73;13.87;;;20.30;99.90;;;;;;4979544;28;20477;-53
2022/06/04 07:35:36;;;;;;;19.40;13.07;;;20.40;99.90;;;;;;5000576;28;20530;-52
2022/06/04 07:38:03;;;;;;;19.97;12.20;;;20.40;99.90;;;;;;4997231;28;20489;-52
2022/06/04 07:40:30;;;;;;;21.83;12.30;;;20.50;99.90;;;;;;4997680;28;20500;-53
2022/06/04 07:42:56;;;;;;;13.33;11.93;;;20.60;99.90;;;;;;5000088;28;20489;-53
2022/06/04 07:45:23;;;;;;;16.23;14.53;;;20.60;99.90;;;;;;4995166;28;20540;-53
2022/06/04 07:47:50;;;;;;;14.23;12.77;;;20.70;99.90;;;;;;4998102;28;21086;-53
2022/06/04 07:50:17;;;;;;;23.77;16.20;;;20.80;99.90;;;;;;4997337;28;21010;-52
2022/06/04 07:52:45;;;;;;;17.87;14.93;;;20.80;99.90;;;;;;4993535;28;20494;-52
2022/06/04 07:55:12;;;;;;;21.13;17.17;;;20.80;99.90;;;;;;4998784;28;20491;-53
2022/06/04 07:57:40;;;;;;;23.67;15.77;;;20.80;99.90;;;;;;5000112;28;20484;-53
2022/06/04 08:00:09;;;;;;;24.43;17.63;;;20.90;99.90;;;;;;4995868;28;20583;-53
2022/06/04 08:02:35;;;;;;;24.70;19.70;;;20.90;99.90;;;;;;4998203;28;20491;-53
2022/06/04 08:05:02;;;;;;;28.83;22.83;;;20.90;99.90;;;;;;4998411;28;20477;-53
2022/06/04 08:07:29;;;;;;;40.90;30.30;;;21.00;99.80;;;;;;4999220;28;20481;-53
2022/06/04 08:09:57;;;;;;;34.30;28.03;;;21.00;99.90;;;;;;4998159;28;20504;-53
2022/06/04 08:12:23;;;;;;;35.23;28.17;;;21.10;99.90;;;;;;4999904;28;20492;-53
2022/06/04 08:14:50;;;;;;;26.63;21.50;;;21.20;99.90;;;;;;5000996;28;20494;-52
2022/06/04 08:17:17;;;;;;;23.40;20.30;;;21.30;99.90;;;;;;5000495;28;20471;-53
2022/06/04 08:19:44;;;;;;;23.57;17.00;;;21.40;99.90;;;;;;5002140;28;20476;-53
2022/06/04 08:22:11;;;;;;;17.83;14.63;;;21.40;99.90;;;;;;5003297;28;20481;-53
2022/06/04 08:24:38;;;;;;;18.17;15.30;;;21.50;99.90;;;;;;5000509;28;20484;-52
2022/06/04 08:27:06;;;;;;;24.53;15.47;;;21.50;99.90;;;;;;5002802;28;20583;-53
2022/06/04 08:29:35;;;;;;;17.43;14.20;;;21.60;99.90;;;;;;5000239;28;20496;-53
2022/06/04 08:32:03;;;;;;;16.27;13.27;;;21.70;99.90;;;;;;5026306;28;20472;-53
2022/06/04 08:34:30;;;;;;;18.80;14.37;;;21.70;99.60;;;;;;4997387;28;20638;-53
2022/06/04 08:36:57;;;;;;;15.37;13.77;;;21.80;99.90;;;;;;5003847;28;20497;-53
2022/06/04 08:39:23;;;;;;;15.63;13.47;;;21.90;99.60;;;;;;5000517;28;20485;-54
2022/06/04 08:42:06;;;;;;;26.27;13.10;;;21.90;99.30;;;;;;5001213;28;20492;-54
2022/06/04 08:44:38;;;;;;;18.60;13.97;;;22.10;99.20;;;;;;5007973;28;20882;-53
2022/06/04 08:47:14;;;;;;;36.17;14.00;;;22.10;99.50;;;;;;5002295;28;20485;-53
2022/06/04 08:49:46;;;;;;;18.57;15.10;;;22.00;99.60;;;;;;5001725;28;20496;-53
2022/06/04 08:52:16;;;;;;;18.53;14.97;;;22.10;99.30;;;;;;5001951;28;20868;-54
2022/06/04 08:57:35;;;;;;;20.33;15.47;;;;;;;;;;5003103;28;20488;-54
2022/06/04 09:00:10;;;;;;;26.77;16.40;;;22.00;99.50;;;;;;5001572;28;20488;-54
2022/06/04 09:02:52;;;;;;;21.47;16.60;;;21.90;99.10;;;;;;5003158;28;20487;-54
2022/06/04 09:05:31;;;;;;;23.33;17.10;;;22.00;99.60;;;;;;5007897;28;20482;-54
2022/06/04 09:08:03;;;;;;;18.60;16.60;;;21.90;99.90;;;;;;5032545;28;20472;-54
2022/06/04 09:10:33;;;;;;;18.40;16.27;;;22.00;99.90;;;;;;5019591;28;20504;-53
2022/06/04 09:13:05;;;;;;;18.13;15.57;;;22.00;99.90;;;;;;5023318;28;20480;-53
2022/06/04 09:15:38;;;;;;;20.60;15.10;;;22.10;99.90;;;;;;5023115;28;20480;-53
2022/06/04 09:18:13;;;;;;;25.67;16.97;;;22.20;99.90;;;;;;5023017;28;21076;-53
2022/06/04 09:20:42;;;;;;;28.73;15.60;;;;;;;;;;5019894;28;20480;-53
2022/06/04 09:23:17;;;;;;;20.97;17.47;;;22.30;99.90;;;;;;5022206;28;20488;-53
2022/06/04 09:25:46;;;;;;;20.03;14.80;;;22.40;99.90;;;;;;5020957;28;20502;-53
2022/06/04 09:28:26;;;;;;;26.80;18.33;;;22.40;99.50;;;;;;5021991;28;20803;-53
2022/06/04 09:31:05;;;;;;;25.20;16.97;;;22.40;99.20;;;;;;5020686;28;20488;-53
2022/06/04 09:33:45;;;;;;;22.20;14.40;;;22.50;99.90;;;;;;5021722;28;20476;-53
2022/06/04 09:36:13;;;;;;;17.80;15.60;;;22.60;99.70;;;;;;5022177;28;20480;-53
2022/06/04 09:38:41;;;;;;;22.30;17.03;;;;;;;;;;5019011;28;20493;-54
2022/06/04 09:41:18;;;;;;;19.53;15.07;;;22.60;99.20;;;;;;5020624;28;21002;-54
2022/06/04 09:43:46;;;;;;;17.50;15.70;;;22.60;99.30;;;;;;5016648;28;21027;-54
2022/06/04 09:46:14;;;;;;;21.07;17.60;;;;;;;;;;5014039;28;20957;-54
2022/06/04 09:48:50;;;;;;;22.80;15.73;;;22.90;99.20;;;;;;5027347;28;20489;-54
2022/06/04 09:51:21;;;;;;;24.43;15.37;;;22.90;99.00;;;;;;5017906;28;20825;-53
2022/06/04 09:53:50;;;;;;;17.80;15.93;;;23.10;99.00;;;;;;5022529;28;20551;-54
2022/06/04 09:56:19;;;;;;;22.37;17.87;;;;;;;;;;5019661;28;20820;-53
2022/06/04 09:58:49;;;;;;;22.57;16.70;;;23.20;98.50;;;;;;5023635;28;21101;-54
2022/06/04 10:01:24;;;;;;;20.03;17.73;;;23.30;98.50;;;;;;5018870;28;20477;-55
2022/06/04 10:04:00;;;;;;;27.53;16.33;;;23.40;98.60;;;;;;4994877;28;20476;-52
2022/06/04 10:06:28;;;;;;;18.40;15.00;;;23.40;98.50;;;;;;5000568;28;20484;-54
2022/06/04 10:11:50;;;;;;;28.03;15.37;;;23.50;98.00;;;;;;5001884;28;20484;-54
2022/06/04 10:14:27;;;;;;;21.60;14.70;;;23.50;98.00;;;;;;5001070;28;20481;-54
2022/06/04 10:16:55;;;;;;;17.53;14.17;;;23.60;98.60;;;;;;4989660;28;20474;-56
2022/06/04 10:19:23;;;;;;;19.07;15.93;;;23.70;97.90;;;;;;4991408;28;21254;-54
2022/06/04 10:22:02;;;;;;;17.60;13.40;;;23.70;98.80;;;;;;5002184;28;20482;-54
2022/06/04 10:24:31;;;;;;;17.90;13.70;;;23.90;98.80;;;;;;5000344;28;21027;-53
2022/06/04 10:27:09;;;;;;;29.00;14.07;;;23.90;97.10;;;;;;5000489;28;20995;-55
2022/06/04 10:30:13;;;;;;;17.40;13.63;;;23.90;98.70;;;;;;4998686;28;20488;-54
2022/06/04 10:32:52;;;;;;;15.03;13.30;;;24.00;96.70;;;;;;4991486;28;20480;-55
2022/06/04 10:35:29;;;;;;;18.37;12.40;;;24.30;98.60;;;;;;4991598;28;20492;-54
2022/06/04 10:38:12;;;;;;;16.73;12.30;;;24.80;98.50;;;;;;4994216;28;20491;-54
2022/06/04 10:40:45;;;;;;;21.87;12.33;;;25.30;97.70;;;;;;4999685;28;20485;-53
2022/06/04 10:43:30;;;;;;;13.23;11.97;;;25.50;97.70;;;;;;4996537;28;21101;-55
2022/06/04 10:46:08;;;;;;;14.00;10.60;;;25.70;96.60;;;;;;4988460;28;20846;-56
2022/06/04 10:48:46;;;;;;;12.43;11.00;;;;;;;;;;4980697;28;20488;-55
2022/06/04 10:51:27;;;;;;;12.40;11.20;;;25.90;93.80;;;;;;5023952;28;20493;-56
2022/06/04 10:54:05;;;;;;;13.10;10.00;;;25.90;95.20;;;;;;5000040;28;20482;-55
2022/06/04 10:56:40;;;;;;;10.93;9.93;;;26.10;95.80;;;;;;4998659;28;20496;-55
2022/06/04 10:59:14;;;;;;;10.03;9.30;;;26.20;94.90;;;;;;4995151;28;20535;-57
2022/06/04 11:01:46;;;;;;;22.60;8.23;;;26.50;95.80;;;;;;4998430;28;20452;-56
2022/06/04 11:04:24;;;;;;;9.17;8.47;;;26.70;93.50;;;;;;5000036;28;20492;-57
2022/06/04 11:06:56;;;;;;;10.87;7.40;;;27.10;94.60;;;;;;5001490;28;20932;-56
2022/06/04 11:09:29;;;;;;;9.80;8.83;;;27.40;94.00;;;;;;4998701;28;20492;-57
2022/06/04 11:11:59;;;;;;;10.07;8.83;;;27.30;92.20;;;;;;4997777;28;21034;-57
2022/06/04 11:14:35;;;;;;;9.43;8.53;;;27.40;93.40;;;;;;4988268;28;20493;-57
2022/06/04 11:17:08;;;;;;;11.47;10.47;;;;;;;;;;4982871;28;20492;-58
2022/06/04 11:19:41;;;;;;;10.33;9.43;;;27.20;93.60;;;;;;5009911;28;20512;-56
2022/06/04 11:22:15;;;;;;;9.03;8.27;;;27.20;91.40;;;;;;4996985;28;20478;-56
2022/06/04 11:24:48;;;;;;;9.30;8.50;;;27.20;91.60;;;;;;4999599;28;20577;-57
2022/06/04 11:27:20;;;;;;;9.30;8.40;;;27.20;93.80;;;;;;5001290;28;20486;-57
2022/06/04 11:29:54;;;;;;;9.93;8.83;;;27.60;92.70;;;;;;4981882;28;20792;-58
2022/06/04 11:32:29;;;;;;;11.97;10.87;;;27.70;91.30;;;;;;4985041;28;20489;-60
2022/06/04 11:35:22;;;;;;;9.67;8.87;;;28.00;91.80;;;;;;4993400;28;20707;-58
2022/06/04 11:38:11;;;;;;;6.67;6.17;;;28.20;91.10;;;;;;4995894;28;21186;-56
2022/06/04 11:40:46;;;;;;;6.73;6.13;;;28.40;91.50;;;;;;4998767;28;20473;-58
2022/06/04 11:43:22;;;;;;;8.40;7.70;;;28.50;89.70;;;;;;4998553;28;20504;-58
2022/06/04 11:46:03;;;;;;;7.40;4.77;;;28.60;88.80;;;;;;4996648;28;20481;-58
2022/06/04 11:48:47;;;;;;;7.07;6.37;;;28.70;91.10;;;;;;4994539;28;21449;-58
2022/06/04 11:51:33;;;;;;;8.37;7.67;;;28.70;86.90;;;;;;4998417;28;20476;-59
2022/06/04 11:54:08;;;;;;;7.57;5.47;;;28.80;88.40;;;;;;5004197;28;20443;-58
2022/06/04 11:56:44;;;;;;;5.63;5.10;;;28.80;83.80;;;;;;4990773;28;20480;-58
2022/06/04 11:59:25;;;;;;;9.33;7.50;;;28.80;89.30;;;;;;5000955;28;20464;-58
2022/06/04 12:01:55;;;;;;;6.37;5.80;;;28.90;88.40;;;;;;4997099;28;20452;-58
2022/06/04 12:04:28;;;;;;;7.33;6.33;;;29.00;87.80;;;;;;5003302;28;20527;-58
2022/06/04 12:07:06;;;;;;;5.30;4.90;;;28.80;82.30;;;;;;4992089;28;20464;-58
2022/06/04 12:09:42;;;;;;;6.50;5.50;;;28.80;88.80;;;;;;4986736;28;20560;-56
2022/06/04 12:12:13;;;;;;;6.73;6.13;;;28.80;86.80;;;;;;4997302;28;20568;-58
2022/06/04 12:14:48;;;;;;;5.27;4.83;;;28.90;87.10;;;;;;4990815;28;20484;-58
2022/06/04 12:17:19;;;;;;;6.30;4.40;;;29.20;83.40;;;;;;5015220;28;20539;-58
2022/06/04 12:25:37;;;;;;;18.20;4.50;;;29.40;79.80;;;;;;4998514;28;20451;-58
2022/06/04 12:28:19;;;;;;;3.20;2.90;;;29.10;78.10;;;;;;4999580;28;20455;-55
2022/06/04 12:30:47;;;;;;;6.00;3.63;;;29.00;78.80;;;;;;4988047;28;21080;-58
2022/06/04 12:33:25;;;;;;;5.67;4.33;;;29.20;79.30;;;;;;4997842;28;20486;-57
2022/06/04 12:35:57;;;;;;;4.13;3.83;;;29.50;79.90;;;;;;4999145;28;21113;-58
2022/06/04 12:38:26;;;;;;;4.40;4.00;;;29.70;81.70;;;;;;4996936;28;20981;-58
2022/06/04 12:41:12;;;;;;;3.37;3.00;;;29.60;73.10;;;;;;4997157;28;20492;-54
2022/06/04 12:43:41;;;;;;;4.00;3.70;;;29.60;80.00;;;;;;4987260;28;20451;-56
2022/06/04 12:46:17;;;;;;;4.13;3.17;;;29.70;77.00;;;;;;5005932;28;20448;-57
2022/06/04 12:48:53;;;;;;;7.60;3.73;;;29.90;76.60;;;;;;4985974;28;20475;-56
2022/06/04 12:51:39;;;;;;;3.70;3.40;;;30.00;77.90;;;;;;4992949;28;20467;-61
2022/06/04 12:54:23;;;;;;;4.13;3.83;;;30.30;78.70;;;;;;4984423;28;20444;-57
2022/06/04 12:56:55;;;;;;;3.97;3.67;;;30.40;78.00;;;;;;4993017;28;20456;-58
2022/06/04 12:59:38;;;;;;;4.27;3.97;;;30.30;78.90;;;;;;4997482;28;20493;-57
2022/06/04 13:02:26;;;;;;;3.57;3.33;;;30.40;77.20;;;;;;5001106;28;20478;-58
2022/06/04 13:05:11;;;;;;;4.47;4.10;;;30.30;76.10;;;;;;5003023;28;21008;-56
2022/06/04 13:07:44;;;;;;;9.20;4.20;;;30.50;79.30;;;;;;4996064;28;20596;-57
2022/06/04 13:10:23;;;;;;;3.60;3.30;;;30.40;72.50;;;;;;4998597;28;21277;-57
2022/06/04 13:12:59;;;;;;;7.83;4.23;;;30.50;77.70;;;;;;5002068;28;20460;-56
2022/06/04 13:15:40;;;;;;;3.83;3.53;;;30.70;76.20;;;;;;4996872;28;20487;-58